sensor_id;sensor_type;location;lat;lon;timestamp;pressure;altitude;pressure_sealevel;temperature;humidity
13407;BME280;6774;48.208;10.766;2024-01-27T00:00:14;97138.19;;;2.74;86.17
13407;BME280;6774;48.208;10.766;2024-01-27T00:02:43;97143.81;;;2.81;87.48
13407;BME280;6774;48.208;10.766;2024-01-27T00:05:11;97147.56;;;2.77;87.76
13407;BME280;6774;48.208;10.766;2024-01-27T00:07:39;97148.53;;;2.76;87.11
13407;BME280;6774;48.208;10.766;2024-01-27T00:10:07;97147.75;;;2.74;86.58
13407;BME280;6774;48.208;10.766;2024-01-27T00:12:36;97146.00;;;2.74;86.69
13407;BME280;6774;48.208;10.766;2024-01-27T00:15:06;97153.84;;;2.74;87.17
13407;BME280;6774;48.208;10.766;2024-01-27T00:17:34;97151.50;;;2.70;86.39
13407;BME280;6774;48.208;10.766;2024-01-27T00:20:05;97139.78;;;2.36;86.25
13407;BME280;6774;48.208;10.766;2024-01-27T00:22:33;97150.06;;;2.24;86.83
13407;BME280;6774;48.208;10.766;2024-01-27T00:25:01;97142.34;;;2.09;87.43
13407;BME280;6774;48.208;10.766;2024-01-27T00:27:29;97143.59;;;1.89;86.92
13407;BME280;6774;48.208;10.766;2024-01-27T00:29:56;97141.66;;;1.92;87.28
13407;BME280;6774;48.208;10.766;2024-01-27T00:32:24;97152.03;;;2.07;87.25
13407;BME280;6774;48.208;10.766;2024-01-27T00:34:52;97153.97;;;2.17;86.40
13407;BME280;6774;48.208;10.766;2024-01-27T00:37:22;97152.03;;;2.21;86.49
13407;BME280;6774;48.208;10.766;2024-01-27T00:39:49;97158.69;;;2.25;86.54
13407;BME280;6774;48.208;10.766;2024-01-27T00:42:17;97149.84;;;2.27;86.70
13407;BME280;6774;48.208;10.766;2024-01-27T00:44:50;97151.97;;;2.35;86.77
13407;BME280;6774;48.208;10.766;2024-01-27T00:47:18;97151.88;;;2.37;86.94
13407;BME280;6774;48.208;10.766;2024-01-27T00:49:46;97156.72;;;2.28;87.33
13407;BME280;6774;48.208;10.766;2024-01-27T00:52:14;97149.94;;;2.26;87.07
13407;BME280;6774;48.208;10.766;2024-01-27T00:54:43;97143.16;;;2.23;88.11
13407;BME280;6774;48.208;10.766;2024-01-27T00:57:11;97143.16;;;2.23;87.86
13407;BME280;6774;48.208;10.766;2024-01-27T00:59:38;97139.72;;;2.23;88.25
13407;BME280;6774;48.208;10.766;2024-01-27T01:02:07;97146.97;;;2.32;87.65
13407;BME280;6774;48.208;10.766;2024-01-27T01:04:35;97149.19;;;2.38;88.09
13407;BME280;6774;48.208;10.766;2024-01-27T01:07:03;97152.53;;;2.40;87.75
13407;BME280;6774;48.208;10.766;2024-01-27T01:09:31;97159.41;;;2.41;87.47
13407;BME280;6774;48.208;10.766;2024-01-27T01:12:00;97171.19;;;2.47;87.49
13407;BME280;6774;48.208;10.766;2024-01-27T01:14:28;97181.69;;;2.60;87.11
13407;BME280;6774;48.208;10.766;2024-01-27T01:16:56;97189.13;;;2.66;86.67
13407;BME280;6774;48.208;10.766;2024-01-27T01:19:24;97188.09;;;2.68;86.51
13407;BME280;6774;48.208;10.766;2024-01-27T01:21:53;97180.31;;;2.81;85.72
13407;BME280;6774;48.208;10.766;2024-01-27T01:24:21;97188.09;;;2.95;84.53
13407;BME280;6774;48.208;10.766;2024-01-27T01:26:49;97186.84;;;3.01;84.23
13407;BME280;6774;48.208;10.766;2024-01-27T01:29:18;97193.94;;;2.99;84.34
13407;BME280;6774;48.208;10.766;2024-01-27T01:31:46;97190.72;;;2.95;84.24
13407;BME280;6774;48.208;10.766;2024-01-27T01:34:14;97195.19;;;2.93;84.13
13407;BME280;6774;48.208;10.766;2024-01-27T01:36:42;97199.81;;;3.02;83.42
13407;BME280;6774;48.208;10.766;2024-01-27T01:39:11;97201.28;;;3.06;83.11
13407;BME280;6774;48.208;10.766;2024-01-27T01:41:39;97206.28;;;3.09;82.86
13407;BME280;6774;48.208;10.766;2024-01-27T01:44:07;97206.09;;;3.12;83.00
13407;BME280;6774;48.208;10.766;2024-01-27T01:46:36;97200.91;;;3.25;82.41
13407;BME280;6774;48.208;10.766;2024-01-27T01:49:04;97203.00;;;3.33;82.44
13407;BME280;6774;48.208;10.766;2024-01-27T01:51:32;97206.97;;;3.26;82.21
13407;BME280;6774;48.208;10.766;2024-01-27T01:54:01;97214.19;;;2.95;81.75
13407;BME280;6774;48.208;10.766;2024-01-27T01:56:29;97209.50;;;2.32;81.47
13407;BME280;6774;48.208;10.766;2024-01-27T01:58:57;97203.91;;;2.38;82.60
13407;BME280;6774;48.208;10.766;2024-01-27T02:01:25;97205.94;;;2.33;82.63
13407;BME280;6774;48.208;10.766;2024-01-27T02:03:54;97216.94;;;2.24;83.26
13407;BME280;6774;48.208;10.766;2024-01-27T02:06:23;97208.75;;;2.30;84.15
13407;BME280;6774;48.208;10.766;2024-01-27T02:08:50;97214.84;;;2.58;86.05
13407;BME280;6774;48.208;10.766;2024-01-27T02:11:18;97218.53;;;2.68;85.33
13407;BME280;6774;48.208;10.766;2024-01-27T02:13:46;97215.97;;;2.53;84.90
13407;BME280;6774;48.208;10.766;2024-01-27T02:16:14;97221.63;;;2.46;84.83
13407;BME280;6774;48.208;10.766;2024-01-27T02:18:44;97205.84;;;2.35;85.10
13407;BME280;6774;48.208;10.766;2024-01-27T02:21:13;97220.09;;;2.29;84.70
13407;BME280;6774;48.208;10.766;2024-01-27T02:23:43;97228.75;;;2.15;84.86
13407;BME280;6774;48.208;10.766;2024-01-27T02:26:12;97221.41;;;2.08;85.69
13407;BME280;6774;48.208;10.766;2024-01-27T02:28:40;97215.47;;;2.06;85.30
13407;BME280;6774;48.208;10.766;2024-01-27T02:31:07;97225.78;;;2.07;86.21
13407;BME280;6774;48.208;10.766;2024-01-27T02:33:35;97227.00;;;2.02;86.02
13407;BME280;6774;48.208;10.766;2024-01-27T02:36:03;97239.22;;;1.71;86.14
13407;BME280;6774;48.208;10.766;2024-01-27T02:38:31;97239.06;;;1.74;86.23
13407;BME280;6774;48.208;10.766;2024-01-27T02:40:59;97247.75;;;1.73;85.94
13407;BME280;6774;48.208;10.766;2024-01-27T02:43:28;97243.84;;;1.52;85.66
13407;BME280;6774;48.208;10.766;2024-01-27T02:45:56;97242.69;;;1.41;84.83
13407;BME280;6774;48.208;10.766;2024-01-27T02:48:24;97241.03;;;1.40;85.00
13407;BME280;6774;48.208;10.766;2024-01-27T02:50:52;97245.91;;;1.31;85.89
13407;BME280;6774;48.208;10.766;2024-01-27T02:53:19;97247.69;;;1.30;85.78
13407;BME280;6774;48.208;10.766;2024-01-27T02:55:47;97249.50;;;0.98;86.52
13407;BME280;6774;48.208;10.766;2024-01-27T02:58:15;97247.47;;;1.03;87.76
13407;BME280;6774;48.208;10.766;2024-01-27T03:00:44;97246.06;;;0.98;87.72
13407;BME280;6774;48.208;10.766;2024-01-27T03:03:12;97237.91;;;1.04;87.65
13407;BME280;6774;48.208;10.766;2024-01-27T03:05:40;97250.13;;;1.18;88.56
13407;BME280;6774;48.208;10.766;2024-01-27T03:08:09;97260.38;;;1.05;88.45
13407;BME280;6774;48.208;10.766;2024-01-27T03:10:36;97262.47;;;1.14;89.04
13407;BME280;6774;48.208;10.766;2024-01-27T03:13:04;97271.63;;;1.05;89.53
13407;BME280;6774;48.208;10.766;2024-01-27T03:15:33;97274.88;;;1.09;88.99
13407;BME280;6774;48.208;10.766;2024-01-27T03:18:02;97275.66;;;1.11;89.14
13407;BME280;6774;48.208;10.766;2024-01-27T03:20:30;97269.44;;;0.98;88.79
13407;BME280;6774;48.208;10.766;2024-01-27T03:22:58;97280.53;;;0.85;88.59
13407;BME280;6774;48.208;10.766;2024-01-27T03:25:26;97273.41;;;0.73;88.61
13407;BME280;6774;48.208;10.766;2024-01-27T03:27:54;97280.78;;;0.65;89.28
13407;BME280;6774;48.208;10.766;2024-01-27T03:30:22;97282.72;;;0.77;88.86
13407;BME280;6774;48.208;10.766;2024-01-27T03:32:50;97287.25;;;0.74;88.29
13407;BME280;6774;48.208;10.766;2024-01-27T03:35:19;97287.06;;;0.61;88.26
13407;BME280;6774;48.208;10.766;2024-01-27T03:37:47;97284.03;;;0.53;88.27
13407;BME280;6774;48.208;10.766;2024-01-27T03:40:15;97286.97;;;0.63;88.35
13407;BME280;6774;48.208;10.766;2024-01-27T03:42:43;97278.94;;;0.67;89.15
13407;BME280;6774;48.208;10.766;2024-01-27T03:45:11;97284.72;;;0.72;88.75
13407;BME280;6774;48.208;10.766;2024-01-27T03:47:39;97289.75;;;0.75;88.28
13407;BME280;6774;48.208;10.766;2024-01-27T03:50:07;97290.59;;;0.76;88.40
13407;BME280;6774;48.208;10.766;2024-01-27T03:52:36;97289.91;;;0.72;88.60
13407;BME280;6774;48.208;10.766;2024-01-27T03:55:05;97296.44;;;0.64;88.66
13407;BME280;6774;48.208;10.766;2024-01-27T03:57:33;97299.28;;;0.59;88.80
13407;BME280;6774;48.208;10.766;2024-01-27T04:00:01;97292.41;;;0.58;88.27
13407;BME280;6774;48.208;10.766;2024-01-27T04:02:31;97297.53;;;0.60;89.10
13407;BME280;6774;48.208;10.766;2024-01-27T04:04:59;97290.56;;;0.44;89.47
13407;BME280;6774;48.208;10.766;2024-01-27T04:07:27;97290.56;;;0.44;89.37
13407;BME280;6774;48.208;10.766;2024-01-27T04:09:56;97300.44;;;0.38;88.75
13407;BME280;6774;48.208;10.766;2024-01-27T04:12:24;97299.44;;;0.40;89.11
13407;BME280;6774;48.208;10.766;2024-01-27T04:14:52;97296.59;;;0.45;89.07
13407;BME280;6774;48.208;10.766;2024-01-27T04:17:20;97293.66;;;0.51;89.28
13407;BME280;6774;48.208;10.766;2024-01-27T04:19:49;97291.91;;;0.51;89.68
13407;BME280;6774;48.208;10.766;2024-01-27T04:22:17;97288.91;;;0.59;89.34
13407;BME280;6774;48.208;10.766;2024-01-27T04:24:44;97288.06;;;0.59;90.25
13407;BME280;6774;48.208;10.766;2024-01-27T04:27:13;97294.75;;;0.47;89.75
13407;BME280;6774;48.208;10.766;2024-01-27T04:29:41;97298.81;;;0.19;90.83
13407;BME280;6774;48.208;10.766;2024-01-27T04:32:09;97302.75;;;0.26;90.06
13407;BME280;6774;48.208;10.766;2024-01-27T04:34:37;97296.03;;;0.22;89.59
13407;BME280;6774;48.208;10.766;2024-01-27T04:37:05;97301.28;;;-0.12;90.68
13407;BME280;6774;48.208;10.766;2024-01-27T04:39:33;97298.94;;;-0.17;90.97
13407;BME280;6774;48.208;10.766;2024-01-27T04:42:01;97303.44;;;-0.20;90.76
13407;BME280;6774;48.208;10.766;2024-01-27T04:44:30;97301.59;;;-0.18;90.49
13407;BME280;6774;48.208;10.766;2024-01-27T04:46:59;97303.88;;;-0.12;90.57
13407;BME280;6774;48.208;10.766;2024-01-27T04:49:27;97300.81;;;-0.03;90.87
13407;BME280;6774;48.208;10.766;2024-01-27T04:51:55;97303.69;;;0.08;90.94
13407;BME280;6774;48.208;10.766;2024-01-27T04:54:22;97311.09;;;0.16;90.74
13407;BME280;6774;48.208;10.766;2024-01-27T04:56:51;97312.38;;;0.24;90.81
13407;BME280;6774;48.208;10.766;2024-01-27T04:59:19;97307.31;;;0.39;90.51
13407;BME280;6774;48.208;10.766;2024-01-27T05:01:48;97306.63;;;0.35;91.02
13407;BME280;6774;48.208;10.766;2024-01-27T05:04:16;97302.59;;;0.30;90.73
13407;BME280;6774;48.208;10.766;2024-01-27T05:06:44;97311.19;;;-0.03;90.02
13407;BME280;6774;48.208;10.766;2024-01-27T05:09:13;97307.06;;;0.10;90.78
13407;BME280;6774;48.208;10.766;2024-01-27T05:11:41;97306.00;;;-0.03;90.96
13407;BME280;6774;48.208;10.766;2024-01-27T05:14:09;97309.53;;;-0.04;91.10
13407;BME280;6774;48.208;10.766;2024-01-27T05:16:37;97317.63;;;-0.10;90.66
13407;BME280;6774;48.208;10.766;2024-01-27T05:19:06;97318.41;;;-0.25;90.14
13407;BME280;6774;48.208;10.766;2024-01-27T05:21:34;97320.22;;;-0.28;91.25
13407;BME280;6774;48.208;10.766;2024-01-27T05:24:02;97316.31;;;-0.19;91.27
13407;BME280;6774;48.208;10.766;2024-01-27T05:26:30;97315.47;;;-0.37;91.06
13407;BME280;6774;48.208;10.766;2024-01-27T05:28:58;97327.31;;;-0.31;92.42
13407;BME280;6774;48.208;10.766;2024-01-27T05:31:26;97321.13;;;-0.29;92.39
13407;BME280;6774;48.208;10.766;2024-01-27T05:33:53;97320.00;;;-0.23;92.51
13407;BME280;6774;48.208;10.766;2024-01-27T05:36:24;97320.53;;;-0.16;92.38
13407;BME280;6774;48.208;10.766;2024-01-27T05:38:52;97324.78;;;0.02;92.17
13407;BME280;6774;48.208;10.766;2024-01-27T05:41:25;97328.44;;;0.15;91.72
13407;BME280;6774;48.208;10.766;2024-01-27T05:43:53;97324.47;;;-0.09;91.64
13407;BME280;6774;48.208;10.766;2024-01-27T05:46:21;97325.94;;;-0.04;92.61
13407;BME280;6774;48.208;10.766;2024-01-27T05:48:48;97332.03;;;0.13;92.45
13407;BME280;6774;48.208;10.766;2024-01-27T05:51:17;97324.53;;;0.24;91.93
13407;BME280;6774;48.208;10.766;2024-01-27T05:53:46;97326.56;;;0.35;91.42
13407;BME280;6774;48.208;10.766;2024-01-27T05:56:14;97341.09;;;0.21;90.44
13407;BME280;6774;48.208;10.766;2024-01-27T05:58:42;97342.78;;;0.22;90.83
13407;BME280;6774;48.208;10.766;2024-01-27T06:01:10;97331.75;;;0.35;90.44
13407;BME280;6774;48.208;10.766;2024-01-27T06:03:40;97342.66;;;0.41;90.67
13407;BME280;6774;48.208;10.766;2024-01-27T06:06:08;97345.03;;;0.46;89.90
13407;BME280;6774;48.208;10.766;2024-01-27T06:08:36;97341.75;;;0.42;90.35
13407;BME280;6774;48.208;10.766;2024-01-27T06:11:06;97351.47;;;0.39;89.58
13407;BME280;6774;48.208;10.766;2024-01-27T06:13:36;97350.84;;;0.34;89.67
13407;BME280;6774;48.208;10.766;2024-01-27T06:16:06;97351.00;;;0.31;90.31
13407;BME280;6774;48.208;10.766;2024-01-27T06:18:35;97346.66;;;0.31;90.31
13407;BME280;6774;48.208;10.766;2024-01-27T06:21:05;97345.66;;;0.34;89.80
13407;BME280;6774;48.208;10.766;2024-01-27T06:23:33;97350.72;;;0.37;89.94
13407;BME280;6774;48.208;10.766;2024-01-27T06:26:05;97363.22;;;0.46;89.97
13407;BME280;6774;48.208;10.766;2024-01-27T06:28:33;97365.81;;;0.62;90.52
13407;BME280;6774;48.208;10.766;2024-01-27T06:31:02;97372.91;;;0.75;90.20
13407;BME280;6774;48.208;10.766;2024-01-27T06:33:30;97377.00;;;0.79;89.78
13407;BME280;6774;48.208;10.766;2024-01-27T06:35:58;97368.13;;;0.83;89.05
13407;BME280;6774;48.208;10.766;2024-01-27T06:38:26;97374.56;;;0.76;89.50
13407;BME280;6774;48.208;10.766;2024-01-27T06:40:54;97365.84;;;0.77;88.91
13407;BME280;6774;48.208;10.766;2024-01-27T06:43:23;97379.47;;;0.82;89.48
13407;BME280;6774;48.208;10.766;2024-01-27T06:45:51;97383.88;;;0.80;89.01
13407;BME280;6774;48.208;10.766;2024-01-27T06:48:19;97374.09;;;0.85;89.52
13407;BME280;6774;48.208;10.766;2024-01-27T06:50:47;97377.13;;;0.94;89.84
13407;BME280;6774;48.208;10.766;2024-01-27T06:53:15;97381.81;;;1.03;89.32
13407;BME280;6774;48.208;10.766;2024-01-27T06:55:42;97381.97;;;1.16;89.24
13407;BME280;6774;48.208;10.766;2024-01-27T06:58:10;97380.47;;;1.27;88.45
13407;BME280;6774;48.208;10.766;2024-01-27T07:00:39;97379.81;;;1.39;87.82
13407;BME280;6774;48.208;10.766;2024-01-27T07:03:07;97379.44;;;1.46;88.01
13407;BME280;6774;48.208;10.766;2024-01-27T07:05:39;97382.47;;;1.54;87.34
13407;BME280;6774;48.208;10.766;2024-01-27T07:08:08;97379.19;;;1.50;87.93
13407;BME280;6774;48.208;10.766;2024-01-27T07:10:36;97383.47;;;1.51;87.36
13407;BME280;6774;48.208;10.766;2024-01-27T07:13:05;97381.91;;;1.49;87.99
13407;BME280;6774;48.208;10.766;2024-01-27T07:15:33;97386.34;;;1.31;86.40
13407;BME280;6774;48.208;10.766;2024-01-27T07:18:06;97393.22;;;1.16;86.37
13407;BME280;6774;48.208;10.766;2024-01-27T07:20:35;97391.03;;;1.08;86.05
13407;BME280;6774;48.208;10.766;2024-01-27T07:23:03;97395.88;;;0.99;87.19
13407;BME280;6774;48.208;10.766;2024-01-27T07:25:31;97400.25;;;0.82;86.38
13407;BME280;6774;48.208;10.766;2024-01-27T07:27:59;97400.88;;;0.70;85.96
13407;BME280;6774;48.208;10.766;2024-01-27T07:30:27;97394.41;;;0.62;85.59
13407;BME280;6774;48.208;10.766;2024-01-27T07:32:56;97401.03;;;0.67;86.73
13407;BME280;6774;48.208;10.766;2024-01-27T07:35:25;97393.00;;;0.72;86.83
13407;BME280;6774;48.208;10.766;2024-01-27T07:37:53;97400.38;;;0.79;86.87
13407;BME280;6774;48.208;10.766;2024-01-27T07:40:21;97393.19;;;0.84;87.24
13407;BME280;6774;48.208;10.766;2024-01-27T07:42:49;97396.22;;;0.93;87.25
13407;BME280;6774;48.208;10.766;2024-01-27T07:45:17;97400.94;;;1.02;87.09
13407;BME280;6774;48.208;10.766;2024-01-27T07:47:45;97397.84;;;1.11;87.59
13407;BME280;6774;48.208;10.766;2024-01-27T07:50:13;97408.16;;;1.28;88.04
13407;BME280;6774;48.208;10.766;2024-01-27T07:52:42;97400.09;;;1.49;87.35
13407;BME280;6774;48.208;10.766;2024-01-27T07:55:10;97410.47;;;1.64;87.99
13407;BME280;6774;48.208;10.766;2024-01-27T07:57:38;97410.13;;;1.86;87.73
13407;BME280;6774;48.208;10.766;2024-01-27T08:00:07;97405.00;;;2.15;88.15
13407;BME280;6774;48.208;10.766;2024-01-27T08:02:35;97413.09;;;2.69;87.10
13407;BME280;6774;48.208;10.766;2024-01-27T08:05:03;97409.28;;;2.89;85.69
13407;BME280;6774;48.208;10.766;2024-01-27T08:07:31;97404.06;;;3.03;85.32
13407;BME280;6774;48.208;10.766;2024-01-27T08:10:00;97401.81;;;3.52;84.15
13407;BME280;6774;48.208;10.766;2024-01-27T08:12:28;97396.41;;;3.55;82.22
13407;BME280;6774;48.208;10.766;2024-01-27T08:14:56;97392.53;;;3.34;81.12
13407;BME280;6774;48.208;10.766;2024-01-27T08:17:23;97401.25;;;3.20;80.81
13407;BME280;6774;48.208;10.766;2024-01-27T08:19:51;97402.25;;;3.18;82.41
13407;BME280;6774;48.208;10.766;2024-01-27T08:22:19;97395.00;;;3.08;82.16
13407;BME280;6774;48.208;10.766;2024-01-27T08:24:48;97400.88;;;3.12;83.18
13407;BME280;6774;48.208;10.766;2024-01-27T08:27:17;97401.16;;;3.07;82.91
13407;BME280;6774;48.208;10.766;2024-01-27T08:29:44;97410.25;;;3.29;84.15
13407;BME280;6774;48.208;10.766;2024-01-27T08:32:12;97397.63;;;3.50;85.21
13407;BME280;6774;48.208;10.766;2024-01-27T08:34:40;97403.94;;;3.60;83.45
13407;BME280;6774;48.208;10.766;2024-01-27T08:37:15;97399.91;;;3.68;82.07
13407;BME280;6774;48.208;10.766;2024-01-27T08:39:43;97400.66;;;3.70;81.29
13407;BME280;6774;48.208;10.766;2024-01-27T08:42:11;97394.28;;;3.75;80.60
13407;BME280;6774;48.208;10.766;2024-01-27T08:44:41;97397.34;;;3.81;81.44
13407;BME280;6774;48.208;10.766;2024-01-27T08:47:09;97397.94;;;3.72;80.96
13407;BME280;6774;48.208;10.766;2024-01-27T08:49:37;97406.06;;;3.94;81.48
13407;BME280;6774;48.208;10.766;2024-01-27T08:52:05;97413.69;;;3.97;82.04
13407;BME280;6774;48.208;10.766;2024-01-27T08:54:33;97418.53;;;4.04;81.33
13407;BME280;6774;48.208;10.766;2024-01-27T08:57:01;97412.47;;;4.16;81.46
13407;BME280;6774;48.208;10.766;2024-01-27T08:59:29;97409.38;;;4.36;80.86
13407;BME280;6774;48.208;10.766;2024-01-27T09:01:58;97404.41;;;4.59;80.24
13407;BME280;6774;48.208;10.766;2024-01-27T09:04:25;97416.22;;;5.39;79.47
13407;BME280;6774;48.208;10.766;2024-01-27T09:06:53;97410.75;;;7.40;75.29
13407;BME280;6774;48.208;10.766;2024-01-27T09:09:21;97408.38;;;9.37;69.64
13407;BME280;6774;48.208;10.766;2024-01-27T09:11:49;97399.19;;;10.98;63.97
13407;BME280;6774;48.208;10.766;2024-01-27T09:14:17;97399.41;;;12.14;60.91
13407;BME280;6774;48.208;10.766;2024-01-27T09:16:44;97402.31;;;13.34;57.14
13407;BME280;6774;48.208;10.766;2024-01-27T09:19:15;97405.25;;;14.24;54.47
13407;BME280;6774;48.208;10.766;2024-01-27T09:21:43;97400.66;;;14.67;51.45
13407;BME280;6774;48.208;10.766;2024-01-27T09:24:11;97402.31;;;15.00;50.95
13407;BME280;6774;48.208;10.766;2024-01-27T09:26:42;97398.03;;;15.47;49.82
13407;BME280;6774;48.208;10.766;2024-01-27T09:29:09;97411.78;;;15.67;49.11
13407;BME280;6774;48.208;10.766;2024-01-27T09:31:37;97411.59;;;15.68;48.15
13407;BME280;6774;48.208;10.766;2024-01-27T09:34:05;97414.78;;;15.55;47.50
13407;BME280;6774;48.208;10.766;2024-01-27T09:36:34;97410.63;;;15.53;47.76
13407;BME280;6774;48.208;10.766;2024-01-27T09:39:03;97408.31;;;15.50;48.75
13407;BME280;6774;48.208;10.766;2024-01-27T09:41:31;97407.84;;;15.46;48.69
13407;BME280;6774;48.208;10.766;2024-01-27T09:44:01;97420.75;;;15.74;48.53
13407;BME280;6774;48.208;10.766;2024-01-27T09:46:29;97423.53;;;15.72;47.76
13407;BME280;6774;48.208;10.766;2024-01-27T09:48:58;97420.34;;;15.85;48.01
13407;BME280;6774;48.208;10.766;2024-01-27T09:51:26;97422.56;;;16.04;46.87
13407;BME280;6774;48.208;10.766;2024-01-27T09:53:55;97419.59;;;15.68;47.61
13407;BME280;6774;48.208;10.766;2024-01-27T09:56:23;97415.88;;;15.77;47.73
13407;BME280;6774;48.208;10.766;2024-01-27T09:58:52;97424.44;;;15.64;47.80
13407;BME280;6774;48.208;10.766;2024-01-27T10:01:24;97413.63;;;15.66;47.03
13407;BME280;6774;48.208;10.766;2024-01-27T10:03:54;97406.25;;;16.07;46.69
13407;BME280;6774;48.208;10.766;2024-01-27T10:06:22;97406.78;;;16.26;46.53
13407;BME280;6774;48.208;10.766;2024-01-27T10:08:52;97393.88;;;16.60;45.77
13407;BME280;6774;48.208;10.766;2024-01-27T10:11:23;97381.97;;;16.94;44.79
13407;BME280;6774;48.208;10.766;2024-01-27T10:13:54;97389.81;;;17.25;44.56
13407;BME280;6774;48.208;10.766;2024-01-27T10:16:26;97383.56;;;17.32;44.35
13407;BME280;6774;48.208;10.766;2024-01-27T10:19:01;97386.13;;;17.41;43.13
13407;BME280;6774;48.208;10.766;2024-01-27T10:21:29;97388.31;;;17.37;42.88
13407;BME280;6774;48.208;10.766;2024-01-27T10:23:57;97397.47;;;17.72;42.19
13407;BME280;6774;48.208;10.766;2024-01-27T10:26:30;97395.63;;;17.28;42.47
13407;BME280;6774;48.208;10.766;2024-01-27T10:28:58;97401.88;;;17.21;43.10
13407;BME280;6774;48.208;10.766;2024-01-27T10:31:26;97396.44;;;17.58;43.59
13407;BME280;6774;48.208;10.766;2024-01-27T10:33:54;97387.47;;;17.96;42.58
13407;BME280;6774;48.208;10.766;2024-01-27T10:36:23;97389.81;;;18.41;41.05
13407;BME280;6774;48.208;10.766;2024-01-27T10:38:52;97392.34;;;18.28;41.09
13407;BME280;6774;48.208;10.766;2024-01-27T10:41:22;97382.00;;;18.40;41.31
13407;BME280;6774;48.208;10.766;2024-01-27T10:43:53;97384.72;;;18.46;41.08
13407;BME280;6774;48.208;10.766;2024-01-27T10:46:22;97387.78;;;18.65;41.15
13407;BME280;6774;48.208;10.766;2024-01-27T10:48:50;97388.28;;;18.32;40.84
13407;BME280;6774;48.208;10.766;2024-01-27T10:51:26;97386.75;;;18.87;40.59
13407;BME280;6774;48.208;10.766;2024-01-27T10:54:01;97376.69;;;19.17;40.46
13407;BME280;6774;48.208;10.766;2024-01-27T10:56:31;97373.19;;;19.51;40.08
13407;BME280;6774;48.208;10.766;2024-01-27T10:59:01;97366.72;;;19.74;39.27
13407;BME280;6774;48.208;10.766;2024-01-27T11:01:31;97372.59;;;19.97;39.35
13407;BME280;6774;48.208;10.766;2024-01-27T11:04:00;97381.09;;;20.14;39.19
13407;BME280;6774;48.208;10.766;2024-01-27T11:06:31;97374.72;;;20.15;38.92
13407;BME280;6774;48.208;10.766;2024-01-27T11:09:01;97370.25;;;20.55;38.85
13407;BME280;6774;48.208;10.766;2024-01-27T11:11:30;97367.41;;;21.03;38.70
13407;BME280;6774;48.208;10.766;2024-01-27T11:13:58;97363.03;;;21.02;37.65
13407;BME280;6774;48.208;10.766;2024-01-27T11:16:28;97363.69;;;21.04;37.22
13407;BME280;6774;48.208;10.766;2024-01-27T11:18:56;97362.25;;;20.95;37.62
13407;BME280;6774;48.208;10.766;2024-01-27T11:21:24;97363.25;;;21.07;38.49
13407;BME280;6774;48.208;10.766;2024-01-27T11:23:51;97366.03;;;20.20;37.31
13407;BME280;6774;48.208;10.766;2024-01-27T11:26:20;97359.84;;;20.19;38.75
13407;BME280;6774;48.208;10.766;2024-01-27T11:28:49;97359.19;;;19.97;38.45
13407;BME280;6774;48.208;10.766;2024-01-27T11:31:19;97358.16;;;19.16;39.15
13407;BME280;6774;48.208;10.766;2024-01-27T11:33:50;97360.44;;;18.91;40.15
13407;BME280;6774;48.208;10.766;2024-01-27T11:36:21;97356.56;;;19.28;40.67
13407;BME280;6774;48.208;10.766;2024-01-27T11:38:51;97360.44;;;20.01;39.98
13407;BME280;6774;48.208;10.766;2024-01-27T11:41:24;97359.47;;;20.29;38.43
13407;BME280;6774;48.208;10.766;2024-01-27T11:43:52;97360.66;;;20.06;38.35
13407;BME280;6774;48.208;10.766;2024-01-27T11:46:20;97359.13;;;19.84;39.00
13407;BME280;6774;48.208;10.766;2024-01-27T11:48:49;97358.69;;;19.74;38.60
13407;BME280;6774;48.208;10.766;2024-01-27T11:51:18;97350.44;;;19.34;39.27
13407;BME280;6774;48.208;10.766;2024-01-27T11:53:46;97358.00;;;19.24;40.25
13407;BME280;6774;48.208;10.766;2024-01-27T11:56:14;97355.53;;;18.94;39.51
13407;BME280;6774;48.208;10.766;2024-01-27T11:58:46;97356.72;;;18.42;40.54
13407;BME280;6774;48.208;10.766;2024-01-27T12:01:15;97361.63;;;18.39;40.68
13407;BME280;6774;48.208;10.766;2024-01-27T12:03:43;97356.69;;;18.00;41.07
13407;BME280;6774;48.208;10.766;2024-01-27T12:06:13;97349.88;;;17.31;42.07
13407;BME280;6774;48.208;10.766;2024-01-27T12:08:42;97340.75;;;17.41;42.44
13407;BME280;6774;48.208;10.766;2024-01-27T12:11:13;97335.72;;;17.31;42.34
13407;BME280;6774;48.208;10.766;2024-01-27T12:13:46;97335.25;;;17.27;43.27
13407;BME280;6774;48.208;10.766;2024-01-27T12:16:14;97329.28;;;17.11;42.94
13407;BME280;6774;48.208;10.766;2024-01-27T12:18:43;97326.78;;;17.24;43.19
13407;BME280;6774;48.208;10.766;2024-01-27T12:21:11;97326.56;;;17.55;43.21
13407;BME280;6774;48.208;10.766;2024-01-27T12:23:51;97316.75;;;17.91;42.03
13407;BME280;6774;48.208;10.766;2024-01-27T12:26:20;97323.91;;;17.70;41.85
13407;BME280;6774;48.208;10.766;2024-01-27T12:28:48;97324.78;;;17.11;42.47
13407;BME280;6774;48.208;10.766;2024-01-27T12:31:16;97336.06;;;16.61;43.48
13407;BME280;6774;48.208;10.766;2024-01-27T12:33:51;97331.75;;;16.60;44.23
13407;BME280;6774;48.208;10.766;2024-01-27T12:36:20;97327.34;;;17.04;44.16
13407;BME280;6774;48.208;10.766;2024-01-27T12:38:56;97330.72;;;17.43;43.01
13407;BME280;6774;48.208;10.766;2024-01-27T12:41:24;97320.91;;;17.28;41.58
13407;BME280;6774;48.208;10.766;2024-01-27T12:43:52;97316.09;;;17.09;42.14
13407;BME280;6774;48.208;10.766;2024-01-27T12:46:21;97306.00;;;16.90;43.06
13407;BME280;6774;48.208;10.766;2024-01-27T12:48:48;97309.78;;;16.58;42.98
13407;BME280;6774;48.208;10.766;2024-01-27T12:51:16;97315.31;;;16.18;43.95
13407;BME280;6774;48.208;10.766;2024-01-27T12:53:45;97307.56;;;15.78;44.82
13407;BME280;6774;48.208;10.766;2024-01-27T12:56:15;97311.25;;;14.90;45.69
13407;BME280;6774;48.208;10.766;2024-01-27T12:58:42;97303.72;;;14.46;47.36
13407;BME280;6774;48.208;10.766;2024-01-27T13:01:10;97300.53;;;14.18;47.76
13407;BME280;6774;48.208;10.766;2024-01-27T13:03:38;97299.38;;;14.29;47.90
13407;BME280;6774;48.208;10.766;2024-01-27T13:06:11;97288.75;;;14.37;47.94
13407;BME280;6774;48.208;10.766;2024-01-27T13:08:40;97286.41;;;14.26;47.80
13407;BME280;6774;48.208;10.766;2024-01-27T13:11:09;97274.63;;;13.80;48.72
13407;BME280;6774;48.208;10.766;2024-01-27T13:13:41;97268.50;;;13.63;48.87